createdAt,value
2022-09-20T00:04:25.707Z,66.49
2022-09-20T00:09:27.830Z,66.56
2022-09-20T00:14:29.875Z,67.04
2022-09-20T00:19:32.045Z,67.03
2022-09-20T00:24:37.227Z,66.85
2022-09-20T00:29:39.278Z,67.23
2022-09-20T00:34:59.717Z,67.13
2022-09-20T00:40:02.673Z,67.42
2022-09-20T00:45:06.889Z,67.35
2022-09-20T00:50:38.170Z,68.07
2022-09-20T00:56:03.949Z,68.48
2022-09-20T01:01:07.030Z,67.68
2022-09-20T01:06:14.565Z,67.91
2022-09-20T01:11:17.024Z,67.99
2022-09-20T01:16:19.806Z,67.86
2022-09-20T01:21:47.510Z,68.05
2022-09-20T01:27:05.303Z,68.91
2022-09-20T01:32:14.269Z,68.54
2022-09-20T01:37:32.191Z,68.37
2022-09-20T01:42:37.652Z,68.60
2022-09-20T01:48:21.684Z,69.17
2022-09-20T01:53:45.222Z,68.63
2022-09-20T01:59:23.119Z,68.52
2022-09-20T02:04:45.800Z,68.71
2022-09-20T02:10:12.948Z,69.00
2022-09-20T02:15:23.600Z,68.56
2022-09-20T02:21:05.378Z,68.73
2022-09-20T02:26:22.105Z,68.20
2022-09-20T02:31:39.224Z,68.80
2022-09-20T02:36:56.108Z,68.17
2022-09-20T02:42:34.684Z,69.02
2022-09-20T02:47:43.446Z,68.48
2022-09-20T02:53:07.990Z,68.56
2022-09-20T02:58:16.087Z,68.51
2022-09-20T03:08:19.248Z,68.67
2022-09-20T03:13:51.621Z,69.28
2022-09-20T03:19:15.535Z,69.52
2022-09-20T03:25:00.941Z,69.28
2022-09-20T03:30:44.117Z,69.20
2022-09-20T03:36:01.276Z,68.77
2022-09-20T03:41:19.155Z,68.83
2022-09-20T03:46:48.336Z,68.81
2022-09-20T03:52:18.280Z,68.94
2022-09-20T03:57:34.681Z,68.86
2022-09-20T04:02:51.544Z,68.73
2022-09-20T04:08:39.432Z,68.90
2022-09-20T04:14:11.555Z,69.28
2022-09-20T04:19:26.169Z,64.79
2022-09-20T04:24:50.373Z,58.73
2022-09-20T04:30:25.205Z,57.21
2022-09-20T04:36:28.548Z,58.39
2022-09-20T04:41:54.444Z,58.15
2022-09-20T04:47:15.360Z,58.39
2022-09-20T04:52:36.926Z,59.53
2022-09-20T04:58:23.908Z,58.94
2022-09-20T05:04:06.708Z,58.84
2022-09-20T05:09:30.592Z,58.38
2022-09-20T05:15:02.886Z,58.54
2022-09-20T05:20:10.054Z,59.70
2022-09-20T05:25:28.021Z,59.18
2022-09-20T05:30:53.698Z,58.86
2022-09-20T05:36:14.198Z,59.99
2022-09-20T05:41:34.086Z,60.15
2022-09-20T05:47:16.504Z,60.10
2022-09-20T05:53:14.091Z,59.98
2022-09-20T05:58:46.843Z,60.39
2022-09-20T06:03:55.961Z,60.34
2022-09-20T06:09:33.687Z,59.87
2022-09-20T06:14:50.877Z,60.15
2022-09-20T06:20:14.845Z,59.88
2022-09-20T06:25:57.371Z,59.83
2022-09-20T06:31:05.321Z,59.87
2022-09-20T06:36:34.395Z,59.29
2022-09-20T06:41:37.745Z,59.40
2022-09-20T06:46:44.270Z,59.18
2022-09-20T06:51:47.378Z,58.32
2022-09-20T06:56:51.318Z,58.69
2022-09-20T07:01:53.540Z,58.73
2022-09-20T07:07:09.431Z,57.78
2022-09-20T07:12:17.925Z,57.58
2022-09-20T07:24:05.034Z,57.00
2022-09-20T07:29:07.918Z,57.71
2022-09-20T07:34:11.143Z,57.52
2022-09-20T07:39:13.472Z,57.33
2022-09-20T07:44:22.219Z,57.49
2022-09-20T07:49:35.596Z,56.74
2022-09-20T07:54:38.214Z,56.32
2022-09-20T07:59:54.316Z,54.63
2022-09-20T08:04:59.593Z,53.45
2022-09-20T08:10:05.431Z,52.59
2022-09-20T08:15:11.707Z,52.55
2022-09-20T08:20:14.251Z,53.08
2022-09-20T08:25:17.694Z,52.57
2022-09-20T08:30:23.284Z,52.23
2022-09-20T08:35:29.627Z,51.81
2022-09-20T08:40:32.035Z,50.88
2022-09-20T08:45:36.385Z,49.64
2022-09-20T08:50:41.537Z,49.67
2022-09-20T08:55:44.901Z,49.28
2022-09-20T09:00:47.518Z,50.18
2022-09-20T09:05:55.035Z,49.69
2022-09-20T09:11:09.694Z,48.84
2022-09-20T09:16:28.613Z,47.69
2022-09-20T09:21:38.155Z,48.60
2022-09-20T09:26:43.433Z,47.85
2022-09-20T09:31:48.460Z,47.39
2022-09-20T09:36:52.873Z,47.33
2022-09-20T09:42:05.525Z,46.94
2022-09-20T09:47:27.868Z,46.89
2022-09-20T09:52:34.132Z,48.36
2022-09-20T09:58:06.688Z,47.70
2022-09-20T10:03:26.726Z,47.84
2022-09-20T10:08:54.806Z,47.52
2022-09-20T10:14:30.777Z,47.11
2022-09-20T10:20:08.216Z,46.59
2022-09-20T10:25:40.836Z,46.00
2022-09-20T10:30:45.810Z,46.88
2022-09-20T10:35:47.698Z,47.22
2022-09-20T10:41:57.921Z,46.61
2022-09-20T10:47:15.267Z,47.58
2022-09-20T10:52:51.513Z,47.87
2022-09-20T10:58:19.258Z,48.96
2022-09-20T11:03:39.119Z,49.42
2022-09-20T11:08:44.323Z,49.61
2022-09-20T11:14:01.035Z,49.14
2022-09-20T11:19:31.588Z,48.18
2022-09-20T11:24:46.922Z,47.95
2022-09-20T11:30:02.067Z,48.20
2022-09-20T11:35:11.496Z,48.74
2022-09-20T11:40:13.482Z,48.66
2022-09-20T11:45:15.684Z,48.65
2022-09-20T11:51:01.986Z,47.22
2022-09-20T11:56:17.244Z,48.41
2022-09-20T12:01:34.825Z,47.24
2022-09-20T12:06:40.081Z,47.66
2022-09-20T12:11:45.195Z,48.10
2022-09-20T12:16:49.225Z,48.93
2022-09-20T12:22:00.979Z,49.32
2022-09-20T12:27:46.288Z,49.49
2022-09-20T12:32:53.236Z,50.16
2022-09-20T12:37:55.648Z,50.02
2022-09-20T12:42:57.937Z,49.76
2022-09-20T12:47:59.887Z,50.43
2022-09-20T12:53:12.178Z,51.09
2022-09-20T12:58:16.626Z,50.71
2022-09-20T13:03:35.396Z,51.51
2022-09-20T13:09:01.548Z,51.53
2022-09-20T13:14:09.179Z,51.44
2022-09-20T13:19:45.165Z,50.45
2022-09-20T13:24:50.495Z,50.13
2022-09-20T13:29:56.869Z,50.86
2022-09-20T13:35:08.688Z,51.04
2022-09-20T13:40:38.505Z,51.38
2022-09-20T13:46:11.525Z,51.97
2022-09-20T13:51:22.949Z,52.51
2022-09-20T13:56:32.260Z,52.80
2022-09-20T14:01:37.414Z,52.80
2022-09-20T14:06:53.567Z,53.44
2022-09-20T14:11:59.399Z,53.29
2022-09-20T14:17:10.938Z,53.25
2022-09-20T14:22:27.231Z,53.67
2022-09-20T14:27:32.770Z,53.74
2022-09-20T14:32:54.976Z,54.45
2022-09-20T14:38:19.187Z,56.10
2022-09-20T14:43:44.364Z,56.55
2022-09-20T14:48:58.955Z,55.21
2022-09-20T14:54:09.801Z,55.61
2022-09-20T14:59:16.380Z,55.24
2022-09-20T15:04:24.535Z,55.56
2022-09-20T15:09:33.502Z,56.25
2022-09-20T15:14:37.671Z,56.46
2022-09-20T15:19:41.911Z,56.03
2022-09-20T15:24:46.983Z,55.79
2022-09-20T15:29:52.792Z,55.83
2022-09-20T15:35:15.559Z,56.86
2022-09-20T15:40:19.334Z,57.08
2022-09-20T15:45:26.640Z,57.44
2022-09-20T15:50:29.699Z,57.84
2022-09-20T15:55:32.085Z,58.05
2022-09-20T16:00:34.652Z,58.17
2022-09-20T16:05:41.266Z,57.98
2022-09-20T16:10:43.321Z,57.61
2022-09-20T16:16:00.261Z,58.01
2022-09-20T16:21:17.836Z,58.30
2022-09-20T16:26:25.311Z,58.64
2022-09-20T16:31:33.370Z,58.90
2022-09-20T16:36:43.980Z,58.77
2022-09-20T16:42:06.819Z,58.75
2022-09-20T16:47:15.758Z,59.02
2022-09-20T16:52:18.311Z,59.10
2022-09-20T16:57:23.512Z,59.40
2022-09-20T17:02:28.340Z,59.82
2022-09-20T17:07:31.514Z,60.16
2022-09-20T17:12:41.695Z,59.93
2022-09-20T17:17:43.644Z,60.24
2022-09-20T17:22:45.644Z,60.62
2022-09-20T17:27:51.550Z,60.50
2022-09-20T17:32:53.693Z,60.48
2022-09-20T17:37:55.764Z,60.70
2022-09-20T17:42:57.709Z,61.37
2022-09-20T17:59:52.567Z,62.06
2022-09-20T18:11:01.149Z,62.56
2022-09-20T18:16:08.243Z,62.59
2022-09-20T18:21:19.690Z,62.88
2022-09-20T18:26:32.897Z,62.13
2022-09-20T18:31:38.576Z,62.20
2022-09-20T18:36:41.753Z,61.37
2022-09-20T18:41:48.260Z,61.87
2022-09-20T18:46:57.412Z,62.09
2022-09-20T18:52:12.384Z,62.04
2022-09-20T18:57:15.633Z,62.62
2022-09-20T19:02:44.302Z,62.68
2022-09-20T19:08:19.092Z,63.47
2022-09-20T19:13:35.797Z,63.46
2022-09-20T19:19:02.426Z,63.93
2022-09-20T19:24:22.985Z,63.64
2022-09-20T19:29:29.399Z,63.54
2022-09-20T19:34:32.571Z,63.71
2022-09-20T19:40:06.682Z,64.13
2022-09-20T19:45:32.835Z,64.30
2022-09-20T19:50:47.901Z,64.14
2022-09-20T19:56:00.758Z,63.96
2022-09-20T20:01:02.966Z,63.85
2022-09-20T20:06:17.064Z,64.31
2022-09-20T20:11:40.713Z,64.83
2022-09-20T20:17:41.285Z,65.10
2022-09-20T20:23:30.921Z,65.49
2022-09-20T20:28:33.255Z,64.43
2022-09-20T20:33:35.846Z,64.23
2022-09-20T20:38:40.350Z,64.77
2022-09-20T20:43:47.440Z,64.57
2022-09-20T20:48:49.547Z,64.68
2022-09-20T20:53:57.084Z,64.64
2022-09-20T20:59:02.089Z,64.68
2022-09-20T21:04:09.348Z,64.71
2022-09-20T21:09:12.274Z,64.66
2022-09-20T21:14:16.062Z,65.11
2022-09-20T21:19:18.931Z,65.00
2022-09-20T21:24:20.880Z,65.18
2022-09-20T21:29:23.055Z,64.99
2022-09-20T21:34:25.411Z,65.25
2022-09-20T21:39:27.357Z,65.28
2022-09-20T21:44:30.985Z,65.29
2022-09-20T21:49:33.758Z,65.38
2022-09-20T21:54:38.637Z,65.68
2022-09-20T21:59:40.930Z,65.67
2022-09-20T22:04:42.916Z,65.16
2022-09-20T22:09:46.569Z,65.31
2022-09-20T22:14:49.872Z,65.09
2022-09-20T22:19:51.851Z,65.24
2022-09-20T22:24:53.835Z,65.45
2022-09-20T22:30:05.096Z,65.20
2022-09-20T22:35:07.769Z,65.07
2022-09-20T22:40:10.245Z,65.36
2022-09-20T22:45:12.267Z,65.39
2022-09-20T22:50:14.224Z,65.58
2022-09-20T22:55:16.092Z,65.61
2022-09-20T23:00:18.202Z,65.28
2022-09-20T23:05:20.162Z,65.33
2022-09-20T23:10:22.435Z,65.68
2022-09-20T23:15:31.458Z,65.95
2022-09-20T23:20:35.740Z,66.19
2022-09-20T23:25:37.654Z,66.03
2022-09-20T23:30:39.595Z,66.04
2022-09-20T23:35:49.038Z,66.37
2022-09-20T23:40:55.239Z,66.24
2022-09-20T23:46:00.743Z,66.55
2022-09-20T23:51:07.141Z,66.47
2022-09-20T23:56:16.368Z,66.61
